sensor_id;sensor_type;location;lat;lon;timestamp;pressure;altitude;pressure_sealevel;temperature;humidity
46614;BME280;32338;50.430;6.806;2024-02-21T00:00:07;65896.88;;;4.41;100.00
46614;BME280;32338;50.430;6.806;2024-02-21T00:02:36;65893.16;;;4.40;100.00
46614;BME280;32338;50.430;6.806;2024-02-21T00:05:05;65896.09;;;4.38;100.00
46614;BME280;32338;50.430;6.806;2024-02-21T00:07:31;65896.28;;;4.41;100.00
46614;BME280;32338;50.430;6.806;2024-02-21T00:09:58;65894.63;;;4.39;100.00
46614;BME280;32338;50.430;6.806;2024-02-21T00:12:25;65898.34;;;4.40;100.00
46614;BME280;32338;50.430;6.806;2024-02-21T00:14:52;65902.81;;;4.44;100.00
46614;BME280;32338;50.430;6.806;2024-02-21T00:17:18;65906.75;;;4.48;100.00
46614;BME280;32338;50.430;6.806;2024-02-21T00:19:45;65900.78;;;4.45;100.00
46614;BME280;32338;50.430;6.806;2024-02-21T00:22:13;65895.75;;;4.40;100.00
46614;BME280;32338;50.430;6.806;2024-02-21T00:24:39;65899.81;;;4.39;100.00
46614;BME280;32338;50.430;6.806;2024-02-21T00:27:07;65892.22;;;4.42;100.00
46614;BME280;32338;50.430;6.806;2024-02-21T00:29:33;65893.34;;;4.43;100.00
46614;BME280;32338;50.430;6.806;2024-02-21T00:32:00;65903.19;;;4.42;100.00
46614;BME280;32338;50.430;6.806;2024-02-21T00:34:27;65892.78;;;4.42;100.00
46614;BME280;32338;50.430;6.806;2024-02-21T00:36:53;65889.00;;;4.34;100.00
46614;BME280;32338;50.430;6.806;2024-02-21T00:39:21;65897.78;;;4.40;100.00
46614;BME280;32338;50.430;6.806;2024-02-21T00:41:48;65899.13;;;4.43;100.00
46614;BME280;32338;50.430;6.806;2024-02-21T00:44:14;65902.81;;;4.44;100.00
46614;BME280;32338;50.430;6.806;2024-02-21T00:46:41;65908.06;;;4.51;100.00
46614;BME280;32338;50.430;6.806;2024-02-21T00:49:08;65909.75;;;4.53;100.00
46614;BME280;32338;50.430;6.806;2024-02-21T00:51:34;65908.41;;;4.49;100.00
46614;BME280;32338;50.430;6.806;2024-02-21T00:54:01;65904.72;;;4.48;100.00
46614;BME280;32338;50.430;6.806;2024-02-21T00:56:29;65903.00;;;4.47;100.00
46614;BME280;32338;50.430;6.806;2024-02-21T00:58:56;65908.06;;;4.51;100.00
46614;BME280;32338;50.430;6.806;2024-02-21T01:01:23;65904.50;;;4.46;100.00
46614;BME280;32338;50.430;6.806;2024-02-21T01:03:50;65893.50;;;4.38;100.00
46614;BME280;32338;50.430;6.806;2024-02-21T01:06:18;65887.88;;;4.33;100.00
46614;BME280;32338;50.430;6.806;2024-02-21T01:08:45;65904.50;;;4.46;100.00
46614;BME280;32338;50.430;6.806;2024-02-21T01:11:12;65899.47;;;4.41;100.00
46614;BME280;32338;50.430;6.806;2024-02-21T01:13:40;65915.13;;;4.55;100.00
46614;BME280;32338;50.430;6.806;2024-02-21T01:16:07;65912.53;;;4.55;100.00
46614;BME280;32338;50.430;6.806;2024-02-21T01:18:34;65910.47;;;4.49;100.00
46614;BME280;32338;50.430;6.806;2024-02-21T01:21:01;65909.41;;;4.55;100.00
46614;BME280;32338;50.430;6.806;2024-02-21T01:23:26;65926.38;;;4.66;100.00
46614;BME280;32338;50.430;6.806;2024-02-21T01:25:53;65931.56;;;4.66;100.00
46614;BME280;32338;50.430;6.806;2024-02-21T01:28:20;65912.53;;;4.55;100.00
46614;BME280;32338;50.430;6.806;2024-02-21T01:30:48;65909.00;;;4.50;100.00
46614;BME280;32338;50.430;6.806;2024-02-21T01:33:15;65916.47;;;4.59;100.00
46614;BME280;32338;50.430;6.806;2024-02-21T01:35:42;65915.91;;;4.59;100.00
46614;BME280;32338;50.430;6.806;2024-02-21T01:38:08;65915.50;;;4.53;100.00
46614;BME280;32338;50.430;6.806;2024-02-21T01:40:36;65911.94;;;4.48;100.00
46614;BME280;32338;50.430;6.806;2024-02-21T01:43:03;65896.09;;;4.38;100.00
46614;BME280;32338;50.430;6.806;2024-02-21T01:45:29;65901.72;;;4.43;100.00
46614;BME280;32338;50.430;6.806;2024-02-21T01:47:57;65892.72;;;4.35;100.00
46614;BME280;32338;50.430;6.806;2024-02-21T01:50:24;65897.00;;;4.36;100.00
46614;BME280;32338;50.430;6.806;2024-02-21T01:52:51;65891.59;;;4.34;100.00
46614;BME280;32338;50.430;6.806;2024-02-21T01:55:17;65886.56;;;4.29;100.00
46614;BME280;32338;50.430;6.806;2024-02-21T01:57:44;65893.66;;;4.33;100.00
46614;BME280;32338;50.430;6.806;2024-02-21T02:00:13;65881.75;;;4.27;100.00
46614;BME280;32338;50.430;6.806;2024-02-21T02:02:41;65868.63;;;4.13;100.00
46614;BME280;32338;50.430;6.806;2024-02-21T02:05:10;65871.66;;;4.18;100.00
46614;BME280;32338;50.430;6.806;2024-02-21T02:07:37;65871.44;;;4.15;100.00
46614;BME280;32338;50.430;6.806;2024-02-21T02:10:04;65869.41;;;4.16;100.00
46614;BME280;32338;50.430;6.806;2024-02-21T02:12:31;65867.94;;;4.17;100.00
46614;BME280;32338;50.430;6.806;2024-02-21T02:14:59;65848.53;;;4.01;100.00
46614;BME280;32338;50.430;6.806;2024-02-21T02:17:25;65850.00;;;4.00;100.00
46614;BME280;32338;50.430;6.806;2024-02-21T02:19:52;65853.50;;;3.99;100.00
46614;BME280;32338;50.430;6.806;2024-02-21T02:22:22;65846.78;;;3.93;100.00
46614;BME280;32338;50.430;6.806;2024-02-21T02:24:51;65846.25;;;3.92;100.00
46614;BME280;32338;50.430;6.806;2024-02-21T02:27:17;65835.47;;;3.87;100.00
46614;BME280;32338;50.430;6.806;2024-02-21T02:29:44;65835.25;;;3.84;100.00
46614;BME280;32338;50.430;6.806;2024-02-21T02:32:11;65838.19;;;3.82;100.00
46614;BME280;32338;50.430;6.806;2024-02-21T02:34:38;65833.34;;;3.80;100.00
46614;BME280;32338;50.430;6.806;2024-02-21T02:37:05;65832.44;;;3.82;100.00
46614;BME280;32338;50.430;6.806;2024-02-21T02:39:31;65826.63;;;3.74;100.00
46614;BME280;32338;50.430;6.806;2024-02-21T02:41:59;65818.44;;;3.69;100.00
46614;BME280;32338;50.430;6.806;2024-02-21T02:44:26;65821.25;;;3.71;100.00
46614;BME280;32338;50.430;6.806;2024-02-21T02:46:52;65821.25;;;3.71;100.00
46614;BME280;32338;50.430;6.806;2024-02-21T02:49:19;65828.09;;;3.73;100.00
46614;BME280;32338;50.430;6.806;2024-02-21T02:51:45;65821.81;;;3.72;100.00
46614;BME280;32338;50.430;6.806;2024-02-21T02:54:12;65832.22;;;3.79;100.00
46614;BME280;32338;50.430;6.806;2024-02-21T02:56:38;65825.16;;;3.75;100.00
46614;BME280;32338;50.430;6.806;2024-02-21T02:59:06;65834.69;;;3.84;100.00
46614;BME280;32338;50.430;6.806;2024-02-21T03:01:33;65845.66;;;3.92;100.00
46614;BME280;32338;50.430;6.806;2024-02-21T03:04:00;65840.47;;;3.92;100.00
46614;BME280;32338;50.430;6.806;2024-02-21T03:06:27;65841.00;;;3.85;100.00
46614;BME280;32338;50.430;6.806;2024-02-21T03:08:53;65843.25;;;3.87;100.00
46614;BME280;32338;50.430;6.806;2024-02-21T03:11:20;65840.84;;;3.89;100.00
46614;BME280;32338;50.430;6.806;2024-02-21T03:13:54;65831.88;;;3.81;100.00
46614;BME280;32338;50.430;6.806;2024-02-21T03:16:22;65848.25;;;3.92;100.00
46614;BME280;32338;50.430;6.806;2024-02-21T03:18:48;65839.53;;;3.86;100.00
46614;BME280;32338;50.430;6.806;2024-02-21T03:21:15;65831.69;;;3.79;100.00
46614;BME280;32338;50.430;6.806;2024-02-21T03:23:41;65839.66;;;3.81;100.00
46614;BME280;32338;50.430;6.806;2024-02-21T03:26:08;65829.84;;;3.82;100.00
46614;BME280;32338;50.430;6.806;2024-02-21T03:28:34;65828.53;;;3.78;100.00
46614;BME280;32338;50.430;6.806;2024-02-21T03:31:01;65824.97;;;3.72;100.00
46614;BME280;32338;50.430;6.806;2024-02-21T03:33:29;65840.84;;;3.89;100.00
46614;BME280;32338;50.430;6.806;2024-02-21T03:35:56;65854.44;;;3.97;100.00
46614;BME280;32338;50.430;6.806;2024-02-21T03:38:23;65845.88;;;3.94;100.00
46614;BME280;32338;50.430;6.806;2024-02-21T03:40:49;65834.47;;;3.81;100.00
46614;BME280;32338;50.430;6.806;2024-02-21T03:43:16;65836.72;;;3.83;100.00
46614;BME280;32338;50.430;6.806;2024-02-21T03:45:42;65832.81;;;3.80;100.00
46614;BME280;32338;50.430;6.806;2024-02-21T03:48:09;65839.72;;;3.88;100.00
46614;BME280;32338;50.430;6.806;2024-02-21T03:50:37;65838.94;;;3.85;100.00
46614;BME280;32338;50.430;6.806;2024-02-21T03:53:03;65845.13;;;3.91;100.00
46614;BME280;32338;50.430;6.806;2024-02-21T03:55:30;65829.09;;;3.79;100.00
46614;BME280;32338;50.430;6.806;2024-02-21T03:57:56;65838.75;;;3.83;100.00
46614;BME280;32338;50.430;6.806;2024-02-21T04:00:23;65831.88;;;3.81;100.00
46614;BME280;32338;50.430;6.806;2024-02-21T04:02:50;65831.88;;;3.81;100.00
46614;BME280;32338;50.430;6.806;2024-02-21T04:05:16;65826.28;;;3.76;100.00
46614;BME280;32338;50.430;6.806;2024-02-21T04:07:44;65826.28;;;3.76;100.00
46614;BME280;32338;50.430;6.806;2024-02-21T04:10:12;65830.56;;;3.78;100.00
46614;BME280;32338;50.430;6.806;2024-02-21T04:12:38;65828.53;;;3.78;100.00
46614;BME280;32338;50.430;6.806;2024-02-21T04:15:05;65835.59;;;3.82;100.00
46614;BME280;32338;50.430;6.806;2024-02-21T04:17:32;65833.00;;;3.82;100.00
46614;BME280;32338;50.430;6.806;2024-02-21T04:20:02;65827.41;;;3.77;100.00
46614;BME280;32338;50.430;6.806;2024-02-21T04:22:31;65832.44;;;3.82;100.00
46614;BME280;32338;50.430;6.806;2024-02-21T04:24:59;65831.13;;;3.78;100.00
46614;BME280;32338;50.430;6.806;2024-02-21T04:27:26;65838.41;;;3.85;100.00
46614;BME280;32338;50.430;6.806;2024-02-21T04:29:53;65834.13;;;3.83;100.00
46614;BME280;32338;50.430;6.806;2024-02-21T04:32:19;65842.66;;;3.86;100.00
46614;BME280;32338;50.430;6.806;2024-02-21T04:34:46;65847.13;;;3.90;100.00
46614;BME280;32338;50.430;6.806;2024-02-21T04:37:12;65840.69;;;3.94;100.00
46614;BME280;32338;50.430;6.806;2024-02-21T04:39:39;65847.00;;;3.95;100.00
46614;BME280;32338;50.430;6.806;2024-02-21T04:42:07;65848.69;;;3.97;100.00
46614;BME280;32338;50.430;6.806;2024-02-21T04:44:34;65854.84;;;4.02;100.00
46614;BME280;32338;50.430;6.806;2024-02-21T04:47:00;65849.81;;;3.98;100.00
46614;BME280;32338;50.430;6.806;2024-02-21T04:49:28;65851.47;;;3.99;100.00
46614;BME280;32338;50.430;6.806;2024-02-21T04:51:55;65854.63;;;4.00;100.00
46614;BME280;32338;50.430;6.806;2024-02-21T04:54:22;65857.09;;;4.04;100.00
46614;BME280;32338;50.430;6.806;2024-02-21T04:56:48;65858.56;;;4.03;100.00
46614;BME280;32338;50.430;6.806;2024-02-21T04:59:16;65862.84;;;4.05;100.00
46614;BME280;32338;50.430;6.806;2024-02-21T05:01:43;65865.63;;;4.08;100.00
46614;BME280;32338;50.430;6.806;2024-02-21T05:04:10;65860.78;;;4.05;100.00
46614;BME280;32338;50.430;6.806;2024-02-21T05:06:37;65870.69;;;4.12;100.00
46614;BME280;32338;50.430;6.806;2024-02-21T05:09:05;65863.03;;;4.08;100.00
46614;BME280;32338;50.430;6.806;2024-02-21T05:11:32;65858.78;;;4.06;100.00
46614;BME280;32338;50.430;6.806;2024-02-21T05:13:58;65859.47;;;4.02;100.00
46614;BME280;32338;50.430;6.806;2024-02-21T05:16:26;65847.00;;;3.95;100.00
46614;BME280;32338;50.430;6.806;2024-02-21T05:18:53;65848.13;;;3.96;100.00
46614;BME280;32338;50.430;6.806;2024-02-21T05:21:19;65860.59;;;4.03;100.00
46614;BME280;32338;50.430;6.806;2024-02-21T05:23:46;65840.06;;;3.86;100.00
46614;BME280;32338;50.430;6.806;2024-02-21T05:26:20;65848.13;;;3.96;100.00
46614;BME280;32338;50.430;6.806;2024-02-21T05:28:46;65844.34;;;3.88;100.00
46614;BME280;32338;50.430;6.806;2024-02-21T05:31:13;65843.66;;;3.92;100.00
46614;BME280;32338;50.430;6.806;2024-02-21T05:33:41;65849.38;;;3.93;100.00
46614;BME280;32338;50.430;6.806;2024-02-21T05:36:08;65839.88;;;3.84;100.00
46614;BME280;32338;50.430;6.806;2024-02-21T05:38:35;65843.44;;;3.89;100.00
46614;BME280;32338;50.430;6.806;2024-02-21T05:41:02;65844.91;;;3.88;100.00
46614;BME280;32338;50.430;6.806;2024-02-21T05:43:28;65842.13;;;3.86;100.00
46614;BME280;32338;50.430;6.806;2024-02-21T05:45:55;65844.78;;;3.93;100.00
46614;BME280;32338;50.430;6.806;2024-02-21T05:48:22;65841.94;;;3.90;100.00
46614;BME280;32338;50.430;6.806;2024-02-21T05:50:50;65834.47;;;3.81;100.00
46614;BME280;32338;50.430;6.806;2024-02-21T05:53:17;65839.88;;;3.84;100.00
46614;BME280;32338;50.430;6.806;2024-02-21T05:55:44;65833.34;;;3.80;100.00
46614;BME280;32338;50.430;6.806;2024-02-21T05:58:10;65837.13;;;3.88;100.00
46614;BME280;32338;50.430;6.806;2024-02-21T06:00:39;65842.66;;;3.86;100.00
46614;BME280;32338;50.430;6.806;2024-02-21T06:03:05;65838.06;;;3.87;100.00
46614;BME280;32338;50.430;6.806;2024-02-21T06:05:36;65838.47;;;3.92;100.00
46614;BME280;32338;50.430;6.806;2024-02-21T06:08:05;65843.44;;;3.89;100.00
46614;BME280;32338;50.430;6.806;2024-02-21T06:10:32;65839.72;;;3.88;100.00
46614;BME280;32338;50.430;6.806;2024-02-21T06:12:58;65835.81;;;3.85;100.00
46614;BME280;32338;50.430;6.806;2024-02-21T06:15:25;65840.84;;;3.89;100.00
46614;BME280;32338;50.430;6.806;2024-02-21T06:17:51;65841.75;;;3.88;100.00
46614;BME280;32338;50.430;6.806;2024-02-21T06:20:18;65835.03;;;3.82;100.00
46614;BME280;32338;50.430;6.806;2024-02-21T06:22:45;65849.19;;;3.90;100.00
46614;BME280;32338;50.430;6.806;2024-02-21T06:25:12;65840.44;;;3.84;100.00
46614;BME280;32338;50.430;6.806;2024-02-21T06:27:39;65847.38;;;3.93;100.00
46614;BME280;32338;50.430;6.806;2024-02-21T06:30:06;65843.84;;;3.95;100.00
46614;BME280;32338;50.430;6.806;2024-02-21T06:32:33;65835.81;;;3.85;100.00
46614;BME280;32338;50.430;6.806;2024-02-21T06:34:59;65836.34;;;3.85;100.00
46614;BME280;32338;50.430;6.806;2024-02-21T06:37:27;65841.75;;;3.88;100.00
46614;BME280;32338;50.430;6.806;2024-02-21T06:39:54;65833.16;;;3.78;100.00
46614;BME280;32338;50.430;6.806;2024-02-21T06:42:24;65834.69;;;3.84;100.00
46614;BME280;32338;50.430;6.806;2024-02-21T06:44:51;65839.72;;;3.88;100.00
46614;BME280;32338;50.430;6.806;2024-02-21T06:47:18;65834.88;;;3.86;100.00
46614;BME280;32338;50.430;6.806;2024-02-21T06:49:48;65842.53;;;3.91;100.00
46614;BME280;32338;50.430;6.806;2024-02-21T06:52:15;65836.34;;;3.85;100.00
46614;BME280;32338;50.430;6.806;2024-02-21T06:54:42;65833.56;;;3.83;100.00
46614;BME280;32338;50.430;6.806;2024-02-21T06:57:09;65840.06;;;3.86;100.00
46614;BME280;32338;50.430;6.806;2024-02-21T06:59:37;65837.97;;;3.80;100.00
46614;BME280;32338;50.430;6.806;2024-02-21T07:02:03;65837.28;;;3.84;100.00
46614;BME280;32338;50.430;6.806;2024-02-21T07:04:30;65836.00;;;3.87;100.00
46614;BME280;32338;50.430;6.806;2024-02-21T07:06:56;65854.44;;;3.97;100.00
46614;BME280;32338;50.430;6.806;2024-02-21T07:09:23;65854.63;;;4.00;100.00
46614;BME280;32338;50.430;6.806;2024-02-21T07:11:50;65855.19;;;4.00;100.00
46614;BME280;32338;50.430;6.806;2024-02-21T07:14:18;65862.50;;;4.07;100.00
46614;BME280;32338;50.430;6.806;2024-02-21T07:16:46;65865.63;;;4.08;100.00
46614;BME280;32338;50.430;6.806;2024-02-21T07:19:12;65872.56;;;4.16;100.00
46614;BME280;32338;50.430;6.806;2024-02-21T07:21:39;65863.59;;;4.08;100.00
46614;BME280;32338;50.430;6.806;2024-02-21T07:24:07;65870.69;;;4.12;100.00
46614;BME280;32338;50.430;6.806;2024-02-21T07:26:34;65861.78;;;4.11;100.00
46614;BME280;32338;50.430;6.806;2024-02-21T07:29:00;65868.28;;;4.15;100.00
46614;BME280;32338;50.430;6.806;2024-02-21T07:31:27;65868.44;;;4.10;100.00
46614;BME280;32338;50.430;6.806;2024-02-21T07:33:55;65862.31;;;4.12;100.00
46614;BME280;32338;50.430;6.806;2024-02-21T07:36:28;65864.91;;;4.12;100.00
46614;BME280;32338;50.430;6.806;2024-02-21T07:38:55;65874.03;;;4.15;100.00
46614;BME280;32338;50.430;6.806;2024-02-21T07:41:22;65868.84;;;4.15;100.00
46614;BME280;32338;50.430;6.806;2024-02-21T07:43:48;65865.28;;;4.10;100.00
46614;BME280;32338;50.430;6.806;2024-02-21T07:46:15;65867.72;;;4.14;100.00
46614;BME280;32338;50.430;6.806;2024-02-21T07:48:42;65875.16;;;4.16;100.00
46614;BME280;32338;50.430;6.806;2024-02-21T07:51:09;65875.72;;;4.17;100.00
46614;BME280;32338;50.430;6.806;2024-02-21T07:53:38;65872.75;;;4.19;100.00
46614;BME280;32338;50.430;6.806;2024-02-21T07:56:09;65877.03;;;4.20;100.00
46614;BME280;32338;50.430;6.806;2024-02-21T07:58:36;65879.28;;;4.22;100.00
46614;BME280;32338;50.430;6.806;2024-02-21T08:01:03;65881.16;;;4.27;100.00
46614;BME280;32338;50.430;6.806;2024-02-21T08:03:29;65895.31;;;4.35;100.00
46614;BME280;32338;50.430;6.806;2024-02-21T08:05:56;65876.34;;;4.25;100.00
46614;BME280;32338;50.430;6.806;2024-02-21T08:08:24;65893.50;;;4.38;100.00
46614;BME280;32338;50.430;6.806;2024-02-21T08:10:51;65897.41;;;4.42;100.00
46614;BME280;32338;50.430;6.806;2024-02-21T08:13:18;65894.41;;;4.36;100.00
46614;BME280;32338;50.430;6.806;2024-02-21T08:15:45;65896.09;;;4.38;100.00
46614;BME280;32338;50.430;6.806;2024-02-21T08:18:11;65914.78;;;4.58;100.00
46614;BME280;32338;50.430;6.806;2024-02-21T08:20:38;65935.53;;;4.77;100.00
46614;BME280;32338;50.430;6.806;2024-02-21T08:23:04;65936.66;;;4.78;100.00
46614;BME280;32338;50.430;6.806;2024-02-21T08:25:32;65942.44;;;4.85;100.00
46614;BME280;32338;50.430;6.806;2024-02-21T08:27:59;65924.31;;;4.66;100.00
46614;BME280;32338;50.430;6.806;2024-02-21T08:30:26;65938.31;;;4.79;100.00
46614;BME280;32338;50.430;6.806;2024-02-21T08:32:53;65945.84;;;4.89;100.00
46614;BME280;32338;50.430;6.806;2024-02-21T08:35:20;65953.09;;;4.95;100.00
46614;BME280;32338;50.430;6.806;2024-02-21T08:37:48;65959.22;;;4.94;100.00
46614;BME280;32338;50.430;6.806;2024-02-21T08:40:14;65947.84;;;4.88;100.00
46614;BME280;32338;50.430;6.806;2024-02-21T08:42:44;65951.44;;;4.94;100.00
46614;BME280;32338;50.430;6.806;2024-02-21T08:45:10;65952.16;;;4.90;100.00
46614;BME280;32338;50.430;6.806;2024-02-21T08:47:39;65969.31;;;5.03;100.00
46614;BME280;32338;50.430;6.806;2024-02-21T08:50:06;65958.16;;;5.00;100.00
46614;BME280;32338;50.430;6.806;2024-02-21T08:52:34;65973.81;;;5.07;100.00
46614;BME280;32338;50.430;6.806;2024-02-21T08:55:01;65968.63;;;5.07;100.00
46614;BME280;32338;50.430;6.806;2024-02-21T08:57:28;65976.25;;;5.12;100.00
46614;BME280;32338;50.430;6.806;2024-02-21T08:59:56;65965.44;;;5.07;100.00
46614;BME280;32338;50.430;6.806;2024-02-21T09:02:22;65969.72;;;5.08;100.00
46614;BME280;32338;50.430;6.806;2024-02-21T09:04:49;65981.09;;;5.14;100.00
46614;BME280;32338;50.430;6.806;2024-02-21T09:07:15;65969.16;;;5.08;100.00
46614;BME280;32338;50.430;6.806;2024-02-21T09:09:42;65952.16;;;4.90;100.00
46614;BME280;32338;50.430;6.806;2024-02-21T09:12:08;65972.88;;;5.09;100.00
46614;BME280;32338;50.430;6.806;2024-02-21T09:14:37;65954.59;;;4.94;100.00
46614;BME280;32338;50.430;6.806;2024-02-21T09:17:05;65981.09;;;5.14;100.00
46614;BME280;32338;50.430;6.806;2024-02-21T09:19:33;65984.66;;;5.19;100.00
46614;BME280;32338;50.430;6.806;2024-02-21T09:22:00;65988.78;;;5.26;100.00
46614;BME280;32338;50.430;6.806;2024-02-21T09:24:26;66004.44;;;5.33;100.00
46614;BME280;32338;50.430;6.806;2024-02-21T09:26:53;66021.47;;;5.51;100.00
46614;BME280;32338;50.430;6.806;2024-02-21T09:29:19;66017.03;;;5.54;100.00
46614;BME280;32338;50.430;6.806;2024-02-21T09:31:46;66010.66;;;5.46;100.00
46614;BME280;32338;50.430;6.806;2024-02-21T09:34:14;66018.31;;;5.50;100.00
46614;BME280;32338;50.430;6.806;2024-02-21T09:36:41;66000.72;;;5.32;100.00
46614;BME280;32338;50.430;6.806;2024-02-21T09:39:07;66005.97;;;5.39;100.00
46614;BME280;32338;50.430;6.806;2024-02-21T09:41:37;66007.66;;;5.41;100.00
46614;BME280;32338;50.430;6.806;2024-02-21T09:44:10;66024.69;;;5.59;100.00
46614;BME280;32338;50.430;6.806;2024-02-21T09:46:43;66031.41;;;5.65;100.00
46614;BME280;32338;50.430;6.806;2024-02-21T09:49:23;66038.16;;;5.71;100.00
46614;BME280;32338;50.430;6.806;2024-02-21T09:51:55;66009.53;;;5.45;100.00
46614;BME280;32338;50.430;6.806;2024-02-21T09:54:23;66038.34;;;5.74;100.00
46614;BME280;32338;50.430;6.806;2024-02-21T09:56:50;66040.56;;;5.68;100.00
46614;BME280;32338;50.430;6.806;2024-02-21T09:59:17;66059.06;;;5.85;100.00
46614;BME280;32338;50.430;6.806;2024-02-21T10:01:44;66053.84;;;5.85;100.00
46614;BME280;32338;50.430;6.806;2024-02-21T10:04:12;66084.75;;;6.14;100.00
46614;BME280;32338;50.430;6.806;2024-02-21T10:06:41;66080.59;;;6.08;100.00
46614;BME280;32338;50.430;6.806;2024-02-21T10:09:07;66089.94;;;6.14;100.00
46614;BME280;32338;50.430;6.806;2024-02-21T10:11:34;66073.13;;;5.98;100.00
46614;BME280;32338;50.430;6.806;2024-02-21T10:14:05;66074.06;;;6.04;100.00
46614;BME280;32338;50.430;6.806;2024-02-21T10:16:31;66077.22;;;6.05;100.00
46614;BME280;32338;50.430;6.806;2024-02-21T10:18:58;66073.53;;;6.04;100.00
46614;BME280;32338;50.430;6.806;2024-02-21T10:21:25;66073.88;;;6.02;100.00
46614;BME280;32338;50.430;6.806;2024-02-21T10:23:53;66056.09;;;5.88;100.00
46614;BME280;32338;50.430;6.806;2024-02-21T10:26:20;66069.59;;;6.00;100.00
46614;BME280;32338;50.430;6.806;2024-02-21T10:28:47;66066.75;;;5.97;100.00
46614;BME280;32338;50.430;6.806;2024-02-21T10:31:24;66067.66;;;5.96;100.00
46614;BME280;32338;50.430;6.806;2024-02-21T10:33:55;66052.53;;;5.82;100.00
46614;BME280;32338;50.430;6.806;2024-02-21T10:36:21;66066.91;;;5.93;100.00
46614;BME280;32338;50.430;6.806;2024-02-21T10:38:48;66025.81;;;5.60;100.00
46614;BME280;32338;50.430;6.806;2024-02-21T10:41:19;66044.09;;;5.74;100.00
46614;BME280;32338;50.430;6.806;2024-02-21T10:43:49;66058.50;;;5.85;100.00
46614;BME280;32338;50.430;6.806;2024-02-21T10:46:18;66047.91;;;5.82;100.00
46614;BME280;32338;50.430;6.806;2024-02-21T10:48:46;66040.78;;;5.78;100.00
46614;BME280;32338;50.430;6.806;2024-02-21T10:51:17;66059.25;;;5.88;100.00
46614;BME280;32338;50.430;6.806;2024-02-21T10:53:47;66054.44;;;5.86;100.00
46614;BME280;32338;50.430;6.806;2024-02-21T10:56:22;66046.38;;;5.76;100.00
46614;BME280;32338;50.430;6.806;2024-02-21T10:58:49;66052.94;;;5.87;100.00
46614;BME280;32338;50.430;6.806;2024-02-21T11:01:18;66042.44;;;5.73;100.00
46614;BME280;32338;50.430;6.806;2024-02-21T11:03:46;66043.97;;;5.79;100.00
46614;BME280;32338;50.430;6.806;2024-02-21T11:06:14;66044.31;;;5.77;100.00
46614;BME280;32338;50.430;6.806;2024-02-21T11:08:41;66057.78;;;5.89;100.00
46614;BME280;32338;50.430;6.806;2024-02-21T11:11:12;66067.25;;;5.91;100.00
46614;BME280;32338;50.430;6.806;2024-02-21T11:13:43;66071.63;;;5.99;100.00
46614;BME280;32338;50.430;6.806;2024-02-21T11:16:20;66071.47;;;6.04;100.00
46614;BME280;32338;50.430;6.806;2024-02-21T11:18:48;66070.16;;;6.00;100.00
46614;BME280;32338;50.430;6.806;2024-02-21T11:21:14;66068.25;;;5.96;100.00
46614;BME280;32338;50.430;6.806;2024-02-21T11:23:41;66080.41;;;6.05;100.00
46614;BME280;32338;50.430;6.806;2024-02-21T11:26:08;66095.97;;;6.24;100.00
46614;BME280;32338;50.430;6.806;2024-02-21T11:28:35;66083.41;;;6.10;100.00
46614;BME280;32338;50.430;6.806;2024-02-21T11:31:11;66084.16;;;6.13;100.00
46614;BME280;32338;50.430;6.806;2024-02-21T11:33:39;66092.59;;;6.21;100.00
46614;BME280;32338;50.430;6.806;2024-02-21T11:36:07;66102.84;;;6.26;100.00
46614;BME280;32338;50.430;6.806;2024-02-21T11:38:34;66094.84;;;6.23;100.00
46614;BME280;32338;50.430;6.806;2024-02-21T11:41:00;66086.78;;;6.13;100.00
46614;BME280;32338;50.430;6.806;2024-02-21T11:43:27;66095.97;;;6.24;100.00
46614;BME280;32338;50.430;6.806;2024-02-21T11:45:59;66100.81;;;6.26;100.00
46614;BME280;32338;50.430;6.806;2024-02-21T11:48:27;66096.53;;;6.25;100.00
46614;BME280;32338;50.430;6.806;2024-02-21T11:50:54;66105.09;;;6.28;100.00
46614;BME280;32338;50.430;6.806;2024-02-21T11:53:21;66085.50;;;6.17;100.00
46614;BME280;32338;50.430;6.806;2024-02-21T11:55:47;66104.53;;;6.27;100.00
46614;BME280;32338;50.430;6.806;2024-02-21T11:58:15;66097.28;;;6.28;100.00
46614;BME280;32338;50.430;6.806;2024-02-21T12:00:42;66107.38;;;6.37;100.00
46614;BME280;32338;50.430;6.806;2024-02-21T12:03:08;66110.34;;;6.35;100.00
46614;BME280;32338;50.430;6.806;2024-02-21T12:05:36;66113.72;;;6.38;100.00
46614;BME280;32338;50.430;6.806;2024-02-21T12:08:04;66115.19;;;6.37;100.00
46614;BME280;32338;50.430;6.806;2024-02-21T12:10:31;66116.53;;;6.41;100.00
46614;BME280;32338;50.430;6.806;2024-02-21T12:13:05;66107.91;;;6.30;100.00
46614;BME280;32338;50.430;6.806;2024-02-21T12:15:32;66095.00;;;6.19;100.00
46614;BME280;32338;50.430;6.806;2024-02-21T12:17:59;66085.88;;;6.15;100.00
46614;BME280;32338;50.430;6.806;2024-02-21T12:20:26;66104.38;;;6.32;100.00
46614;BME280;32338;50.430;6.806;2024-02-21T12:22:53;66129.25;;;6.50;100.00
46614;BME280;32338;50.430;6.806;2024-02-21T12:25:21;66121.59;;;6.45;100.00
46614;BME280;32338;50.430;6.806;2024-02-21T12:27:51;66126.06;;;6.49;100.00
46614;BME280;32338;50.430;6.806;2024-02-21T12:30:18;66140.66;;;6.63;100.00
46614;BME280;32338;50.430;6.806;2024-02-21T12:32:46;66136.94;;;6.62;100.00
46614;BME280;32338;50.430;6.806;2024-02-21T12:35:13;66133.00;;;6.58;100.00
46614;BME280;32338;50.430;6.806;2024-02-21T12:37:40;66137.72;;;6.65;100.00
46614;BME280;32338;50.430;6.806;2024-02-21T12:40:09;66124.03;;;6.50;100.00
46614;BME280;32338;50.430;6.806;2024-02-21T12:42:38;66136.94;;;6.62;100.00
46614;BME280;32338;50.430;6.806;2024-02-21T12:45:06;66166.50;;;6.87;100.00
46614;BME280;32338;50.430;6.806;2024-02-21T12:47:33;66162.56;;;6.83;100.00
46614;BME280;32338;50.430;6.806;2024-02-21T12:49:59;66163.34;;;6.86;100.00
46614;BME280;32338;50.430;6.806;2024-02-21T12:52:28;66188.59;;;7.09;100.00
46614;BME280;32338;50.430;6.806;2024-02-21T12:54:55;66203.94;;;7.19;100.00
46614;BME280;32338;50.430;6.806;2024-02-21T12:57:25;66195.34;;;7.16;100.00
46614;BME280;32338;50.430;6.806;2024-02-21T12:59:52;66189.19;;;7.10;100.00